createdAt,value
2019-04-10T00:02:19.605Z,3.02
2019-04-10T00:04:48.065Z,2.98
2019-04-10T00:07:18.404Z,3.60
2019-04-10T00:09:47.481Z,2.92
2019-04-10T00:12:16.026Z,3.00
2019-04-10T00:14:44.983Z,2.75
2019-04-10T00:17:13.643Z,2.52
2019-04-10T00:19:42.113Z,2.98
2019-04-10T00:22:11.653Z,2.77
2019-04-10T00:24:40.074Z,2.90
2019-04-10T00:27:08.526Z,2.87
2019-04-10T00:29:36.941Z,3.25
2019-04-10T00:32:05.800Z,3.02
2019-04-10T00:34:35.819Z,2.95
2019-04-10T00:37:04.399Z,3.22
2019-04-10T00:39:32.864Z,3.30
2019-04-10T00:42:01.268Z,2.85
2019-04-10T00:44:29.884Z,2.83
2019-04-10T00:46:59.006Z,3.08
2019-04-10T00:49:27.304Z,2.50
2019-04-10T00:51:55.696Z,2.75
2019-04-10T00:54:24.138Z,3.35
2019-04-10T00:56:52.774Z,2.72
2019-04-10T00:59:21.214Z,2.98
2019-04-10T01:01:50.031Z,3.10
2019-04-10T01:04:18.456Z,2.80
2019-04-10T01:06:46.903Z,2.62
2019-04-10T01:09:15.418Z,2.72
2019-04-10T01:11:43.958Z,2.70
2019-04-10T01:14:12.361Z,2.90
2019-04-10T01:16:41.818Z,3.05
2019-04-10T01:19:10.446Z,3.27
2019-04-10T01:21:38.919Z,2.80
2019-04-10T01:24:07.387Z,3.02
2019-04-10T01:26:35.804Z,3.20
2019-04-10T01:29:05.104Z,3.20
2019-04-10T01:31:33.545Z,2.90
2019-04-10T01:34:03.132Z,3.37
2019-04-10T01:36:31.715Z,3.17
2019-04-10T01:39:00.192Z,3.55
2019-04-10T01:41:28.722Z,2.85
2019-04-10T01:43:57.376Z,2.87
2019-04-10T01:46:26.474Z,3.05
2019-04-10T01:48:55.510Z,3.05
2019-04-10T01:51:23.982Z,3.12
2019-04-10T01:53:52.428Z,3.00
2019-04-10T01:56:27.438Z,3.37
2019-04-10T01:58:51.766Z,3.20
2019-04-10T02:01:24.652Z,3.58
2019-04-10T02:06:21.255Z,3.65
2019-04-10T02:08:49.989Z,3.35
2019-04-10T02:11:18.586Z,3.85
2019-04-10T02:13:47.683Z,3.33
2019-04-10T02:16:16.721Z,3.55
2019-04-10T02:18:45.752Z,3.37
2019-04-10T02:21:13.970Z,3.35
2019-04-10T02:23:42.713Z,3.27
2019-04-10T02:26:11.543Z,3.45
2019-04-10T02:28:39.830Z,3.22
2019-04-10T02:31:08.005Z,3.27
2019-04-10T02:33:36.168Z,3.55
2019-04-10T02:36:05.611Z,2.70
2019-04-10T02:38:50.819Z,3.30
2019-04-10T02:41:03.790Z,2.87
2019-04-10T02:43:33.565Z,3.37
2019-04-10T02:46:02.287Z,2.72
2019-04-10T02:48:32.138Z,3.20
2019-04-10T02:51:01.880Z,3.33
2019-04-10T02:53:31.563Z,3.75
2019-04-10T02:56:00.473Z,3.52
2019-04-10T02:58:29.926Z,3.87
2019-04-10T03:00:59.053Z,3.20
2019-04-10T03:03:27.609Z,2.92
2019-04-10T03:05:56.590Z,3.50
2019-04-10T03:08:41.357Z,3.08
2019-04-10T03:11:00.480Z,3.08
2019-04-10T03:13:26.836Z,3.42
2019-04-10T03:15:55.865Z,3.40
2019-04-10T03:18:25.110Z,3.10
2019-04-10T03:20:54.336Z,4.22
2019-04-10T03:23:23.199Z,3.45
2019-04-10T03:25:51.659Z,3.67
2019-04-10T03:28:20.474Z,3.67
2019-04-10T03:30:49.564Z,3.90
2019-04-10T03:33:26.686Z,4.60
2019-04-10T03:35:54.751Z,3.70
2019-04-10T03:38:23.755Z,3.50
2019-04-10T03:40:52.127Z,3.72
2019-04-10T03:43:21.481Z,3.33
2019-04-10T03:45:50.270Z,3.85
2019-04-10T03:48:18.714Z,3.60
2019-04-10T03:50:47.917Z,3.75
2019-04-10T03:53:16.447Z,3.45
2019-04-10T03:55:45.276Z,3.67
2019-04-10T03:58:13.679Z,2.87
2019-04-10T04:00:42.542Z,2.98
2019-04-10T04:03:11.125Z,4.03
2019-04-10T04:05:39.954Z,3.77
2019-04-10T04:08:08.742Z,3.87
2019-04-10T04:10:37.160Z,2.92
2019-04-10T04:13:07.230Z,3.60
2019-04-10T04:15:35.831Z,3.20
2019-04-10T04:18:04.502Z,4.87
2019-04-10T04:20:33.212Z,4.85
2019-04-10T04:23:01.892Z,5.58
2019-04-10T04:25:30.436Z,6.90
2019-04-10T04:27:58.635Z,8.98
2019-04-10T04:30:27.040Z,7.47
2019-04-10T04:32:56.042Z,7.62
2019-04-10T04:35:24.315Z,11.35
2019-04-10T04:37:52.675Z,19.35
2019-04-10T04:40:21.720Z,12.20
2019-04-10T04:42:50.113Z,12.25
2019-04-10T04:45:19.417Z,18.07
2019-04-10T04:47:48.108Z,8.28
2019-04-10T04:50:16.374Z,11.63
2019-04-10T04:52:45.666Z,6.90
2019-04-10T04:55:14.289Z,15.53
2019-04-10T04:57:42.574Z,15.78
2019-04-10T05:00:10.822Z,5.35
2019-04-10T05:02:40.463Z,4.62
2019-04-10T05:05:09.229Z,4.58
2019-04-10T05:07:37.608Z,4.67
2019-04-10T05:10:07.454Z,4.17
2019-04-10T05:12:35.996Z,4.10
2019-04-10T05:15:06.684Z,3.77
2019-04-10T05:17:35.238Z,4.90
2019-04-10T05:20:04.954Z,3.77
2019-04-10T05:22:34.007Z,4.10
2019-04-10T05:25:03.035Z,4.00
2019-04-10T05:27:31.255Z,3.80
2019-04-10T05:29:59.959Z,3.85
2019-04-10T05:32:28.130Z,4.10
2019-04-10T05:34:56.342Z,3.85
2019-04-10T05:37:24.495Z,6.22
2019-04-10T05:39:53.788Z,4.97
2019-04-10T05:42:22.688Z,4.45
2019-04-10T05:44:52.197Z,3.98
2019-04-10T05:47:21.429Z,3.60
2019-04-10T05:49:50.123Z,3.45
2019-04-10T05:52:18.480Z,3.15
2019-04-10T05:54:47.282Z,4.03
2019-04-10T05:57:15.877Z,3.83
2019-04-10T05:59:44.099Z,3.58
2019-04-10T06:02:12.314Z,3.75
2019-04-10T06:04:41.228Z,3.42
2019-04-10T06:07:10.700Z,3.98
2019-04-10T06:09:46.505Z,3.85
2019-04-10T06:12:09.851Z,3.42
2019-04-10T06:14:38.462Z,4.28
2019-04-10T06:17:07.953Z,4.00
2019-04-10T06:19:36.643Z,3.72
2019-04-10T06:22:05.292Z,3.72
2019-04-10T06:24:33.513Z,3.72
2019-04-10T06:27:01.955Z,3.62
2019-04-10T06:29:30.890Z,3.67
2019-04-10T06:31:59.114Z,3.55
2019-04-10T06:34:27.456Z,3.95
2019-04-10T06:36:56.001Z,3.92
2019-04-10T06:39:24.765Z,3.25
2019-04-10T06:41:53.041Z,4.20
2019-04-10T06:44:21.844Z,4.05
2019-04-10T06:46:50.124Z,4.05
2019-04-10T06:49:18.734Z,4.05
2019-04-10T06:51:47.309Z,4.10
2019-04-10T06:54:16.459Z,3.92
2019-04-10T06:56:45.925Z,4.03
2019-04-10T06:59:14.929Z,4.20
2019-04-10T07:01:49.552Z,4.53
2019-04-10T07:04:13.483Z,3.95
2019-04-10T07:06:52.888Z,4.12
2019-04-10T07:09:13.821Z,5.03
2019-04-10T07:11:42.868Z,4.20
2019-04-10T07:14:14.035Z,4.33
2019-04-10T07:16:42.236Z,4.70
2019-04-10T07:19:13.020Z,5.08
2019-04-10T07:21:40.595Z,4.65
2019-04-10T07:24:13.704Z,5.28
2019-04-10T07:26:44.600Z,4.78
2019-04-10T07:29:16.373Z,5.05
2019-04-10T07:31:42.484Z,5.03
2019-04-10T07:34:11.000Z,4.50
2019-04-10T07:36:41.680Z,5.28
2019-04-10T07:39:09.712Z,4.90
2019-04-10T07:41:38.194Z,4.95
2019-04-10T07:44:06.630Z,5.55
2019-04-10T07:46:35.138Z,5.05
2019-04-10T07:49:03.586Z,5.00
2019-04-10T07:51:32.179Z,4.37
2019-04-10T07:54:01.833Z,4.67
2019-04-10T07:56:31.774Z,5.05
2019-04-10T07:59:00.544Z,4.30
2019-04-10T08:01:29.196Z,4.78
2019-04-10T08:03:57.871Z,4.92
2019-04-10T08:06:26.322Z,4.42
2019-04-10T08:08:55.478Z,5.03
2019-04-10T08:11:24.457Z,5.30
2019-04-10T08:13:54.546Z,4.00
2019-04-10T08:16:23.530Z,4.67
2019-04-10T08:18:52.359Z,4.37
2019-04-10T08:21:21.843Z,5.00
2019-04-10T08:23:51.436Z,4.65
2019-04-10T08:26:21.245Z,4.85
2019-04-10T08:28:49.719Z,4.65
2019-04-10T08:31:18.989Z,4.67
2019-04-10T08:33:47.566Z,4.67
2019-04-10T08:36:15.811Z,4.30
2019-04-10T08:38:44.570Z,4.80
2019-04-10T08:41:12.988Z,5.40
2019-04-10T08:43:41.649Z,4.67
2019-04-10T08:46:10.843Z,4.40
2019-04-10T08:48:39.807Z,3.98
2019-04-10T08:51:08.707Z,4.75
2019-04-10T08:53:39.778Z,4.85
2019-04-10T08:56:08.387Z,4.50
2019-04-10T08:58:37.071Z,4.78
2019-04-10T09:01:07.075Z,5.58
2019-04-10T09:03:37.076Z,4.65
2019-04-10T09:06:05.622Z,5.67
2019-04-10T09:08:35.078Z,5.03
2019-04-10T09:11:03.582Z,5.55
2019-04-10T09:13:32.679Z,5.00
2019-04-10T09:16:02.436Z,5.45
2019-04-10T09:18:31.549Z,5.65
2019-04-10T09:21:00.152Z,5.35
2019-04-10T09:23:37.905Z,4.97
2019-04-10T09:25:59.655Z,5.15
2019-04-10T09:28:28.543Z,5.60
2019-04-10T09:30:57.416Z,4.95
2019-04-10T09:33:29.148Z,5.33
2019-04-10T09:35:57.505Z,6.05
2019-04-10T09:38:26.461Z,5.12
2019-04-10T09:40:57.340Z,4.80
2019-04-10T09:43:25.843Z,5.47
2019-04-10T09:45:54.281Z,5.30
2019-04-10T09:48:22.728Z,5.37
2019-04-10T09:50:52.514Z,5.65
2019-04-10T09:53:21.174Z,5.47
2019-04-10T09:55:49.912Z,5.55
2019-04-10T09:58:18.435Z,5.85
2019-04-10T10:00:48.105Z,4.92
2019-04-10T10:03:17.364Z,5.92
2019-04-10T10:05:46.680Z,4.97
2019-04-10T10:08:16.220Z,5.28
2019-04-10T10:10:45.139Z,5.12
2019-04-10T10:13:17.169Z,5.30
2019-04-10T10:15:47.655Z,5.40
2019-04-10T10:18:17.237Z,5.08
2019-04-10T10:20:46.028Z,5.15
2019-04-10T10:23:14.519Z,5.05
2019-04-10T10:25:43.644Z,4.90
2019-04-10T10:28:13.218Z,4.20
2019-04-10T10:30:42.089Z,4.87
2019-04-10T10:33:10.486Z,4.30
2019-04-10T10:35:39.048Z,4.33
2019-04-10T10:38:07.880Z,4.67
2019-04-10T10:40:36.869Z,4.40
2019-04-10T10:43:05.354Z,4.17
2019-04-10T10:45:34.644Z,4.10
2019-04-10T10:48:03.596Z,3.98
2019-04-10T10:50:33.083Z,4.53
2019-04-10T10:53:01.933Z,4.17
2019-04-10T10:55:31.743Z,4.05
2019-04-10T10:58:00.241Z,3.80
2019-04-10T11:00:29.424Z,4.05
2019-04-10T11:02:58.142Z,4.03
2019-04-10T11:05:27.352Z,4.00
2019-04-10T11:07:55.913Z,4.45
2019-04-10T11:10:27.507Z,4.05
2019-04-10T11:12:55.481Z,3.83
2019-04-10T11:15:23.944Z,4.08
2019-04-10T11:17:52.313Z,3.83
2019-04-10T11:20:20.768Z,4.17
2019-04-10T11:22:49.616Z,3.62
2019-04-10T11:25:18.280Z,4.87
2019-04-10T11:27:47.526Z,4.00
2019-04-10T11:30:16.127Z,3.95
2019-04-10T11:32:44.592Z,4.10
2019-04-10T11:35:13.167Z,3.77
2019-04-10T11:37:44.896Z,4.10
2019-04-10T11:40:12.471Z,4.70
2019-04-10T11:42:42.900Z,4.15
2019-04-10T11:45:16.174Z,3.33
2019-04-10T11:47:44.841Z,3.55
2019-04-10T11:50:17.200Z,3.47
2019-04-10T11:52:51.206Z,3.85
2019-04-10T11:55:16.941Z,3.40
2019-04-10T11:57:45.916Z,3.62
2019-04-10T12:02:48.017Z,3.72
2019-04-10T12:05:19.856Z,3.55
2019-04-10T12:08:08.947Z,3.87
2019-04-10T12:12:46.200Z,3.67
2019-04-10T12:15:14.962Z,3.62
2019-04-10T12:17:44.417Z,3.72
2019-04-10T12:20:13.157Z,4.00
2019-04-10T12:22:41.630Z,3.70
2019-04-10T12:25:10.242Z,3.87
2019-04-10T12:27:39.052Z,4.33
2019-04-10T12:30:11.167Z,3.92
2019-04-10T12:32:40.968Z,4.33
2019-04-10T12:35:09.497Z,3.60
2019-04-10T12:37:39.137Z,4.17
2019-04-10T12:40:07.792Z,4.67
2019-04-10T12:42:36.661Z,4.80
2019-04-10T12:45:06.302Z,4.03
2019-04-10T12:47:34.714Z,3.52
2019-04-10T12:50:05.806Z,4.40
2019-04-10T12:52:34.562Z,4.30
2019-04-10T12:55:03.944Z,4.28
2019-04-10T12:57:32.411Z,3.92
2019-04-10T13:00:04.029Z,4.20
2019-04-10T13:02:30.959Z,4.70
2019-04-10T13:05:00.758Z,4.75
2019-04-10T13:07:29.948Z,4.75
2019-04-10T13:09:58.346Z,4.25
2019-04-10T13:12:26.763Z,4.45
2019-04-10T13:14:55.419Z,4.33
2019-04-10T13:17:24.829Z,4.47
2019-04-10T13:19:53.497Z,4.08
2019-04-10T13:22:22.335Z,4.60
2019-04-10T13:24:50.819Z,4.87
2019-04-10T13:27:19.222Z,4.03
2019-04-10T13:29:48.617Z,4.47
2019-04-10T13:32:18.202Z,4.20
2019-04-10T13:34:47.359Z,4.42
2019-04-10T13:37:15.833Z,4.15
2019-04-10T13:39:44.223Z,4.83
2019-04-10T13:42:12.780Z,4.35
2019-04-10T13:44:41.222Z,4.30
2019-04-10T13:47:10.720Z,4.33
2019-04-10T13:49:39.203Z,3.72
2019-04-10T13:52:07.830Z,3.87
2019-04-10T13:54:36.847Z,4.17
2019-04-10T13:57:05.762Z,4.17
2019-04-10T13:59:35.188Z,4.60
2019-04-10T14:02:05.104Z,4.25
2019-04-10T14:04:33.513Z,3.55
2019-04-10T14:07:02.007Z,4.10
2019-04-10T14:09:41.419Z,4.22
2019-04-10T14:12:01.790Z,3.40
2019-04-10T14:14:30.908Z,3.37
2019-04-10T14:16:59.438Z,3.65
2019-04-10T14:19:29.889Z,3.12
2019-04-10T14:21:59.621Z,3.25
2019-04-10T14:24:39.277Z,2.95
2019-04-10T14:27:18.303Z,3.40
2019-04-10T14:29:47.074Z,2.87
2019-04-10T14:32:17.453Z,2.85
2019-04-10T14:34:46.976Z,2.10
2019-04-10T14:37:16.836Z,2.92
2019-04-10T14:39:45.351Z,2.92
2019-04-10T14:42:14.129Z,2.70
2019-04-10T14:44:42.556Z,2.55
2019-04-10T14:47:13.323Z,2.00
2019-04-10T14:49:41.126Z,1.95
2019-04-10T14:52:10.658Z,2.10
2019-04-10T14:54:39.759Z,2.47
2019-04-10T14:57:08.214Z,2.08
2019-04-10T14:59:36.916Z,1.92
2019-04-10T15:02:06.991Z,2.02
2019-04-10T15:04:35.423Z,2.27
2019-04-10T15:07:03.986Z,2.33
2019-04-10T15:09:32.714Z,2.00
2019-04-10T15:12:01.445Z,2.17
2019-04-10T15:14:32.534Z,2.20
2019-04-10T15:17:04.474Z,2.25
2019-04-10T15:19:32.304Z,2.60
2019-04-10T15:22:01.358Z,2.10
2019-04-10T15:24:29.782Z,2.10
2019-04-10T15:26:58.519Z,2.55
2019-04-10T15:29:27.995Z,2.95
2019-04-10T15:31:57.811Z,2.58
2019-04-10T15:34:26.340Z,2.35
2019-04-10T15:36:54.742Z,2.10
2019-04-10T15:39:32.353Z,2.12
2019-04-10T15:41:53.283Z,2.40
2019-04-10T15:44:21.982Z,3.02
2019-04-10T15:46:51.270Z,3.42
2019-04-10T15:49:20.527Z,2.90
2019-04-10T15:51:49.726Z,3.95
2019-04-10T15:54:18.256Z,2.67
2019-04-10T15:56:46.719Z,2.37
2019-04-10T15:59:16.371Z,2.45
2019-04-10T16:01:45.293Z,2.60
2019-04-10T16:04:14.715Z,2.70
2019-04-10T16:06:43.812Z,2.60
2019-04-10T16:09:14.798Z,2.70
2019-04-10T16:11:45.897Z,2.83
2019-04-10T16:14:20.596Z,2.60
2019-04-10T16:16:52.882Z,3.00
2019-04-10T16:19:28.700Z,2.42
2019-04-10T16:21:57.109Z,2.77
2019-04-10T16:24:27.028Z,3.30
2019-04-10T16:26:55.899Z,2.65
2019-04-10T16:29:25.320Z,3.15
2019-04-10T16:31:54.554Z,2.60
2019-04-10T16:34:23.162Z,2.77
2019-04-10T16:36:52.135Z,2.80
2019-04-10T16:39:22.163Z,2.58
2019-04-10T16:41:50.666Z,2.65
2019-04-10T16:44:19.235Z,2.60
2019-04-10T16:46:50.532Z,3.30
2019-04-10T16:49:17.862Z,2.90
2019-04-10T16:51:46.347Z,2.85
2019-04-10T16:54:17.294Z,3.10
2019-04-10T16:56:45.650Z,2.87
2019-04-10T16:59:14.338Z,2.70
2019-04-10T17:01:44.880Z,2.80
2019-04-10T17:04:14.493Z,2.70
2019-04-10T17:06:44.222Z,3.17
2019-04-10T17:09:14.445Z,2.80
2019-04-10T17:11:43.107Z,2.83
2019-04-10T17:14:11.563Z,2.75
2019-04-10T17:16:40.370Z,2.60
2019-04-10T17:19:09.724Z,2.22
2019-04-10T17:21:38.433Z,2.70
2019-04-10T17:24:07.260Z,2.60
2019-04-10T17:26:35.693Z,2.37
2019-04-10T17:29:05.071Z,2.92
2019-04-10T17:31:34.916Z,3.35
2019-04-10T17:34:06.503Z,2.90
2019-04-10T17:36:35.205Z,2.70
2019-04-10T17:39:05.349Z,2.52
2019-04-10T17:41:33.834Z,2.60
2019-04-10T17:44:02.796Z,2.60
2019-04-10T17:46:31.333Z,3.10
2019-04-10T17:49:01.222Z,2.70
2019-04-10T17:51:30.329Z,3.00
2019-04-10T17:53:59.854Z,2.85
2019-04-10T17:56:28.711Z,2.72
2019-04-10T17:58:58.180Z,2.60
2019-04-10T18:01:27.294Z,2.35
2019-04-10T18:03:59.025Z,3.05
2019-04-10T18:06:25.776Z,2.70
2019-04-10T18:08:54.214Z,2.90
2019-04-10T18:11:22.703Z,3.00
2019-04-10T18:13:51.188Z,2.70
2019-04-10T18:16:22.073Z,2.83
2019-04-10T18:18:51.722Z,2.87
2019-04-10T18:21:20.325Z,2.60
2019-04-10T18:23:49.529Z,3.10
2019-04-10T18:26:20.570Z,3.12
2019-04-10T18:28:48.054Z,2.80
2019-04-10T18:31:16.660Z,3.08
2019-04-10T18:33:45.160Z,3.30
2019-04-10T18:36:13.570Z,2.65
2019-04-10T18:38:41.965Z,2.80
2019-04-10T18:41:11.645Z,3.17
2019-04-10T18:43:40.376Z,6.83
2019-04-10T18:46:13.421Z,4.53
2019-04-10T18:48:38.999Z,3.85
2019-04-10T18:51:09.442Z,3.65
2019-04-10T18:53:37.927Z,5.17
2019-04-10T18:56:07.045Z,4.60
2019-04-10T18:58:46.243Z,24.92
2019-04-10T19:01:19.268Z,6.25
2019-04-10T19:03:59.670Z,4.40
2019-04-10T19:06:29.886Z,3.10
2019-04-10T19:11:33.240Z,3.42
2019-04-10T19:13:59.322Z,3.50
2019-04-10T19:16:29.729Z,3.02
2019-04-10T19:18:58.162Z,3.20
2019-04-10T19:21:27.232Z,2.95
2019-04-10T19:23:55.794Z,2.77
2019-04-10T19:26:24.187Z,3.40
2019-04-10T19:28:53.019Z,3.08
2019-04-10T19:31:24.588Z,4.25
2019-04-10T19:33:53.217Z,4.00
2019-04-10T19:36:21.668Z,5.37
2019-04-10T19:38:50.099Z,3.77
2019-04-10T19:41:25.191Z,4.12
2019-04-10T19:43:48.851Z,3.85
2019-04-10T19:46:17.753Z,4.55
2019-04-10T19:48:49.789Z,4.05
2019-04-10T19:51:16.428Z,4.03
2019-04-10T19:53:45.788Z,3.80
2019-04-10T19:56:14.742Z,4.37
2019-04-10T19:58:44.070Z,4.25
2019-04-10T20:01:12.933Z,4.00
2019-04-10T20:03:41.330Z,4.00
2019-04-10T20:06:10.002Z,3.80
2019-04-10T20:08:39.706Z,4.20
2019-04-10T20:11:08.852Z,4.67
2019-04-10T20:13:37.498Z,4.97
2019-04-10T20:16:06.985Z,4.37
2019-04-10T20:18:35.523Z,4.15
2019-04-10T20:21:04.258Z,4.62
2019-04-10T20:23:32.663Z,4.72
2019-04-10T20:26:01.228Z,4.15
2019-04-10T20:28:30.893Z,4.42
2019-04-10T20:30:59.711Z,4.80
2019-04-10T20:33:28.156Z,4.30
2019-04-10T20:35:56.928Z,4.85
2019-04-10T20:38:25.769Z,4.12
2019-04-10T20:40:54.215Z,4.25
2019-04-10T20:43:24.237Z,4.40
2019-04-10T20:45:53.708Z,4.72
2019-04-10T20:48:22.537Z,4.22
2019-04-10T20:50:52.262Z,4.22
2019-04-10T20:53:20.713Z,5.08
2019-04-10T20:55:50.923Z,4.28
2019-04-10T20:58:20.204Z,4.08
2019-04-10T21:00:49.830Z,4.50
2019-04-10T21:03:18.305Z,4.87
2019-04-10T21:05:46.754Z,4.35
2019-04-10T21:08:15.739Z,4.58
2019-04-10T21:10:45.094Z,4.67
2019-04-10T21:13:13.577Z,4.97
2019-04-10T21:15:42.268Z,4.17
2019-04-10T21:18:11.082Z,4.55
2019-04-10T21:20:40.763Z,4.83
2019-04-10T21:23:09.684Z,4.80
2019-04-10T21:25:39.363Z,4.80
2019-04-10T21:28:08.146Z,4.40
2019-04-10T21:30:40.892Z,4.80
2019-04-10T21:33:28.675Z,4.40
2019-04-10T21:35:57.616Z,4.60
2019-04-10T21:38:26.358Z,4.25
2019-04-10T21:40:55.284Z,4.72
2019-04-10T21:43:24.109Z,4.15
2019-04-10T21:45:52.675Z,4.33
2019-04-10T21:48:22.311Z,4.60
2019-04-10T21:50:51.767Z,4.37
2019-04-10T21:53:20.303Z,4.00
2019-04-10T21:55:49.043Z,4.65
2019-04-10T21:58:17.561Z,4.62
2019-04-10T22:00:57.034Z,4.53
2019-04-10T22:03:27.531Z,4.28
2019-04-10T22:06:13.375Z,4.37
2019-04-10T22:08:43.582Z,4.00
2019-04-10T22:11:12.811Z,4.40
2019-04-10T22:13:41.647Z,4.12
2019-04-10T22:16:11.585Z,4.30
2019-04-10T22:18:39.970Z,4.45
2019-04-10T22:21:09.152Z,4.35
2019-04-10T22:23:37.584Z,4.50
2019-04-10T22:26:06.036Z,4.22
2019-04-10T22:28:35.061Z,4.08
2019-04-10T22:31:03.782Z,4.20
2019-04-10T22:33:32.240Z,4.10
2019-04-10T22:36:01.202Z,3.92
2019-04-10T22:38:29.845Z,4.60
2019-04-10T22:40:58.273Z,4.58
2019-04-10T22:43:26.698Z,4.55
2019-04-10T22:45:55.198Z,4.80
2019-04-10T22:48:23.666Z,3.98
2019-04-10T22:50:52.059Z,4.53
2019-04-10T22:53:21.376Z,4.53
2019-04-10T22:55:50.657Z,4.22
2019-04-10T22:58:19.153Z,4.42
2019-04-10T23:00:48.443Z,4.12
2019-04-10T23:03:18.020Z,4.78
2019-04-10T23:05:46.844Z,4.70
2019-04-10T23:08:15.638Z,4.37
2019-04-10T23:10:45.506Z,4.30
2019-04-10T23:13:14.091Z,4.50
2019-04-10T23:15:43.894Z,4.58
2019-04-10T23:18:13.017Z,4.17
2019-04-10T23:20:41.771Z,4.53
2019-04-10T23:23:10.645Z,4.45
2019-04-10T23:25:40.472Z,4.70
2019-04-10T23:28:09.501Z,4.40
2019-04-10T23:30:39.136Z,4.53
2019-04-10T23:33:08.116Z,4.70
2019-04-10T23:35:37.803Z,4.30
2019-04-10T23:38:07.023Z,3.62
2019-04-10T23:40:36.762Z,4.75
2019-04-10T23:43:12.896Z,5.03
2019-04-10T23:45:35.576Z,4.80
2019-04-10T23:48:04.556Z,4.80
2019-04-10T23:50:34.523Z,4.15
2019-04-10T23:53:03.001Z,5.22
2019-04-10T23:55:32.262Z,5.05
2019-04-10T23:58:00.702Z,5.17
